sensor_id;sensor_type;location;lat;lon;timestamp;P1;durP1;ratioP1;P2;durP2;ratioP2
3443;SDS011;1736;52.068;6.968;2023-06-24T00:00:35;11.47;;;8.60;;
3443;SDS011;1736;52.068;6.968;2023-06-24T00:03:02;10.90;;;8.23;;
3443;SDS011;1736;52.068;6.968;2023-06-24T00:05:30;15.43;;;9.40;;
3443;SDS011;1736;52.068;6.968;2023-06-24T00:07:57;10.80;;;8.57;;
3443;SDS011;1736;52.068;6.968;2023-06-24T00:10:27;16.33;;;9.50;;
3443;SDS011;1736;52.068;6.968;2023-06-24T00:12:54;10.93;;;8.63;;
3443;SDS011;1736;52.068;6.968;2023-06-24T00:15:21;11.23;;;9.07;;
3443;SDS011;1736;52.068;6.968;2023-06-24T00:17:47;9.10;;;8.00;;
3443;SDS011;1736;52.068;6.968;2023-06-24T00:20:15;12.70;;;9.37;;
3443;SDS011;1736;52.068;6.968;2023-06-24T00:22:44;12.10;;;9.33;;
3443;SDS011;1736;52.068;6.968;2023-06-24T00:25:13;10.70;;;8.70;;
3443;SDS011;1736;52.068;6.968;2023-06-24T00:27:40;11.03;;;9.10;;
3443;SDS011;1736;52.068;6.968;2023-06-24T00:30:07;12.37;;;8.37;;
3443;SDS011;1736;52.068;6.968;2023-06-24T00:32:35;11.17;;;8.40;;
3443;SDS011;1736;52.068;6.968;2023-06-24T00:35:01;10.30;;;9.03;;
3443;SDS011;1736;52.068;6.968;2023-06-24T00:37:28;10.33;;;8.47;;
3443;SDS011;1736;52.068;6.968;2023-06-24T00:39:56;14.37;;;9.57;;
3443;SDS011;1736;52.068;6.968;2023-06-24T00:42:22;11.20;;;9.20;;
3443;SDS011;1736;52.068;6.968;2023-06-24T00:44:49;10.70;;;8.47;;
3443;SDS011;1736;52.068;6.968;2023-06-24T00:47:15;11.40;;;9.03;;
3443;SDS011;1736;52.068;6.968;2023-06-24T00:49:42;15.50;;;9.67;;
3443;SDS011;1736;52.068;6.968;2023-06-24T00:52:10;12.77;;;8.70;;
3443;SDS011;1736;52.068;6.968;2023-06-24T00:54:40;11.10;;;9.10;;
3443;SDS011;1736;52.068;6.968;2023-06-24T00:57:09;15.27;;;9.10;;
3443;SDS011;1736;52.068;6.968;2023-06-24T00:59:36;15.37;;;9.00;;
3443;SDS011;1736;52.068;6.968;2023-06-24T01:02:04;11.20;;;9.00;;
3443;SDS011;1736;52.068;6.968;2023-06-24T01:04:31;10.20;;;8.93;;
3443;SDS011;1736;52.068;6.968;2023-06-24T01:06:58;14.53;;;9.70;;
3443;SDS011;1736;52.068;6.968;2023-06-24T01:09:25;12.03;;;9.20;;
3443;SDS011;1736;52.068;6.968;2023-06-24T01:11:52;13.67;;;9.77;;
3443;SDS011;1736;52.068;6.968;2023-06-24T01:14:19;10.57;;;8.57;;
3443;SDS011;1736;52.068;6.968;2023-06-24T01:16:50;12.60;;;9.20;;
3443;SDS011;1736;52.068;6.968;2023-06-24T01:22:33;15.70;;;9.50;;
3443;SDS011;1736;52.068;6.968;2023-06-24T01:25:17;13.53;;;10.07;;
3443;SDS011;1736;52.068;6.968;2023-06-24T01:28:07;13.47;;;9.57;;
3443;SDS011;1736;52.068;6.968;2023-06-24T01:31:00;10.97;;;8.90;;
3443;SDS011;1736;52.068;6.968;2023-06-24T01:33:46;13.57;;;10.80;;
3443;SDS011;1736;52.068;6.968;2023-06-24T01:36:17;16.43;;;9.50;;
3443;SDS011;1736;52.068;6.968;2023-06-24T01:38:47;18.80;;;10.50;;
3443;SDS011;1736;52.068;6.968;2023-06-24T01:41:18;13.00;;;10.13;;
3443;SDS011;1736;52.068;6.968;2023-06-24T01:43:48;12.13;;;10.07;;
3443;SDS011;1736;52.068;6.968;2023-06-24T01:46:16;15.17;;;10.33;;
3443;SDS011;1736;52.068;6.968;2023-06-24T01:48:51;15.17;;;10.10;;
3443;SDS011;1736;52.068;6.968;2023-06-24T01:51:20;12.87;;;9.23;;
3443;SDS011;1736;52.068;6.968;2023-06-24T01:53:51;10.87;;;8.87;;
3443;SDS011;1736;52.068;6.968;2023-06-24T01:56:20;11.77;;;9.13;;
3443;SDS011;1736;52.068;6.968;2023-06-24T01:58:50;12.13;;;8.80;;
3443;SDS011;1736;52.068;6.968;2023-06-24T02:01:19;11.00;;;9.17;;
3443;SDS011;1736;52.068;6.968;2023-06-24T02:03:48;9.90;;;8.10;;
3443;SDS011;1736;52.068;6.968;2023-06-24T02:06:16;13.47;;;10.27;;
3443;SDS011;1736;52.068;6.968;2023-06-24T02:08:44;11.10;;;9.47;;
3443;SDS011;1736;52.068;6.968;2023-06-24T02:11:13;10.97;;;8.90;;
3443;SDS011;1736;52.068;6.968;2023-06-24T02:13:42;10.73;;;8.80;;
3443;SDS011;1736;52.068;6.968;2023-06-24T02:16:09;12.73;;;9.17;;
3443;SDS011;1736;52.068;6.968;2023-06-24T02:18:37;11.43;;;8.40;;
3443;SDS011;1736;52.068;6.968;2023-06-24T02:21:08;11.23;;;9.37;;
3443;SDS011;1736;52.068;6.968;2023-06-24T02:23:35;15.03;;;9.40;;
3443;SDS011;1736;52.068;6.968;2023-06-24T02:26:03;12.37;;;9.17;;
3443;SDS011;1736;52.068;6.968;2023-06-24T02:28:32;11.47;;;9.30;;
3443;SDS011;1736;52.068;6.968;2023-06-24T02:30:59;13.70;;;8.93;;
3443;SDS011;1736;52.068;6.968;2023-06-24T02:33:26;12.90;;;9.43;;
3443;SDS011;1736;52.068;6.968;2023-06-24T02:35:53;14.37;;;9.77;;
3443;SDS011;1736;52.068;6.968;2023-06-24T02:38:21;12.53;;;9.80;;
3443;SDS011;1736;52.068;6.968;2023-06-24T02:40:48;15.50;;;8.70;;
3443;SDS011;1736;52.068;6.968;2023-06-24T02:43:16;14.03;;;9.90;;
3443;SDS011;1736;52.068;6.968;2023-06-24T02:45:43;14.00;;;9.90;;
3443;SDS011;1736;52.068;6.968;2023-06-24T02:48:10;11.93;;;9.50;;
3443;SDS011;1736;52.068;6.968;2023-06-24T02:50:39;11.20;;;9.50;;
3443;SDS011;1736;52.068;6.968;2023-06-24T02:53:08;13.17;;;10.33;;
3443;SDS011;1736;52.068;6.968;2023-06-24T02:55:37;14.67;;;10.83;;
3443;SDS011;1736;52.068;6.968;2023-06-24T02:58:07;12.73;;;9.77;;
3443;SDS011;1736;52.068;6.968;2023-06-24T03:00:35;15.00;;;10.03;;
3443;SDS011;1736;52.068;6.968;2023-06-24T03:03:03;16.13;;;10.90;;
3443;SDS011;1736;52.068;6.968;2023-06-24T03:05:30;14.13;;;10.33;;
3443;SDS011;1736;52.068;6.968;2023-06-24T03:07:58;16.10;;;10.20;;
3443;SDS011;1736;52.068;6.968;2023-06-24T03:10:25;16.80;;;11.63;;
3443;SDS011;1736;52.068;6.968;2023-06-24T03:12:53;13.67;;;10.20;;
3443;SDS011;1736;52.068;6.968;2023-06-24T03:15:19;14.80;;;10.40;;
3443;SDS011;1736;52.068;6.968;2023-06-24T03:17:46;14.13;;;10.37;;
3443;SDS011;1736;52.068;6.968;2023-06-24T03:20:13;16.37;;;10.90;;
3443;SDS011;1736;52.068;6.968;2023-06-24T03:22:39;14.97;;;10.57;;
3443;SDS011;1736;52.068;6.968;2023-06-24T03:25:06;15.27;;;11.23;;
3443;SDS011;1736;52.068;6.968;2023-06-24T03:27:33;16.30;;;11.30;;
3443;SDS011;1736;52.068;6.968;2023-06-24T03:30:01;19.53;;;11.80;;
3443;SDS011;1736;52.068;6.968;2023-06-24T03:32:27;17.40;;;11.20;;
3443;SDS011;1736;52.068;6.968;2023-06-24T03:34:54;14.33;;;10.83;;
3443;SDS011;1736;52.068;6.968;2023-06-24T03:37:20;19.07;;;11.50;;
3443;SDS011;1736;52.068;6.968;2023-06-24T03:39:47;15.27;;;10.97;;
3443;SDS011;1736;52.068;6.968;2023-06-24T03:42:13;14.90;;;11.53;;
3443;SDS011;1736;52.068;6.968;2023-06-24T03:44:40;14.47;;;11.00;;
3443;SDS011;1736;52.068;6.968;2023-06-24T03:47:08;15.10;;;12.03;;
3443;SDS011;1736;52.068;6.968;2023-06-24T03:49:34;15.30;;;11.10;;
3443;SDS011;1736;52.068;6.968;2023-06-24T03:52:01;14.40;;;10.93;;
3443;SDS011;1736;52.068;6.968;2023-06-24T03:54:28;15.80;;;12.03;;
3443;SDS011;1736;52.068;6.968;2023-06-24T03:56:55;22.93;;;12.10;;
3443;SDS011;1736;52.068;6.968;2023-06-24T03:59:21;15.20;;;11.83;;
3443;SDS011;1736;52.068;6.968;2023-06-24T04:01:48;15.67;;;11.50;;
3443;SDS011;1736;52.068;6.968;2023-06-24T04:04:17;15.60;;;11.00;;
3443;SDS011;1736;52.068;6.968;2023-06-24T04:06:44;15.13;;;11.30;;
3443;SDS011;1736;52.068;6.968;2023-06-24T04:09:10;16.90;;;11.63;;
3443;SDS011;1736;52.068;6.968;2023-06-24T04:11:37;17.53;;;12.43;;
3443;SDS011;1736;52.068;6.968;2023-06-24T04:14:03;15.70;;;10.70;;
3443;SDS011;1736;52.068;6.968;2023-06-24T04:16:31;15.10;;;11.30;;
3443;SDS011;1736;52.068;6.968;2023-06-24T04:18:58;15.73;;;11.40;;
3443;SDS011;1736;52.068;6.968;2023-06-24T04:21:26;15.70;;;11.80;;
3443;SDS011;1736;52.068;6.968;2023-06-24T04:23:52;19.50;;;12.07;;
3443;SDS011;1736;52.068;6.968;2023-06-24T04:26:19;14.20;;;11.23;;
3443;SDS011;1736;52.068;6.968;2023-06-24T04:28:45;16.63;;;11.13;;
3443;SDS011;1736;52.068;6.968;2023-06-24T04:31:11;18.10;;;11.17;;
3443;SDS011;1736;52.068;6.968;2023-06-24T04:33:38;15.50;;;10.53;;
3443;SDS011;1736;52.068;6.968;2023-06-24T04:36:04;17.40;;;10.87;;
3443;SDS011;1736;52.068;6.968;2023-06-24T04:38:32;14.97;;;10.60;;
3443;SDS011;1736;52.068;6.968;2023-06-24T04:40:59;16.07;;;11.80;;
3443;SDS011;1736;52.068;6.968;2023-06-24T04:43:25;21.30;;;11.10;;
3443;SDS011;1736;52.068;6.968;2023-06-24T04:45:53;14.23;;;10.03;;
3443;SDS011;1736;52.068;6.968;2023-06-24T04:48:20;20.10;;;11.30;;
3443;SDS011;1736;52.068;6.968;2023-06-24T04:50:46;14.60;;;10.13;;
3443;SDS011;1736;52.068;6.968;2023-06-24T04:53:13;18.33;;;11.10;;
3443;SDS011;1736;52.068;6.968;2023-06-24T04:55:40;17.27;;;10.37;;
3443;SDS011;1736;52.068;6.968;2023-06-24T04:58:07;13.60;;;10.17;;
3443;SDS011;1736;52.068;6.968;2023-06-24T05:00:34;15.87;;;9.90;;
3443;SDS011;1736;52.068;6.968;2023-06-24T05:03:00;12.33;;;10.00;;
3443;SDS011;1736;52.068;6.968;2023-06-24T05:05:27;13.23;;;10.03;;
3443;SDS011;1736;52.068;6.968;2023-06-24T05:07:53;13.60;;;9.93;;
3443;SDS011;1736;52.068;6.968;2023-06-24T05:10:20;13.60;;;10.00;;
3443;SDS011;1736;52.068;6.968;2023-06-24T05:12:48;13.27;;;9.90;;
3443;SDS011;1736;52.068;6.968;2023-06-24T05:15:14;18.87;;;10.43;;
3443;SDS011;1736;52.068;6.968;2023-06-24T05:17:41;13.77;;;9.80;;
3443;SDS011;1736;52.068;6.968;2023-06-24T05:20:08;11.90;;;9.60;;
3443;SDS011;1736;52.068;6.968;2023-06-24T05:22:35;14.17;;;9.93;;
3443;SDS011;1736;52.068;6.968;2023-06-24T05:25:02;12.13;;;8.93;;
3443;SDS011;1736;52.068;6.968;2023-06-24T05:27:28;12.63;;;9.73;;
3443;SDS011;1736;52.068;6.968;2023-06-24T05:29:56;14.37;;;9.33;;
3443;SDS011;1736;52.068;6.968;2023-06-24T05:32:23;11.80;;;9.00;;
3443;SDS011;1736;52.068;6.968;2023-06-24T05:34:49;11.13;;;9.60;;
3443;SDS011;1736;52.068;6.968;2023-06-24T05:37:16;14.67;;;9.60;;
3443;SDS011;1736;52.068;6.968;2023-06-24T05:39:42;18.53;;;10.13;;
3443;SDS011;1736;52.068;6.968;2023-06-24T05:42:09;15.00;;;9.40;;
3443;SDS011;1736;52.068;6.968;2023-06-24T05:44:35;11.13;;;9.10;;
3443;SDS011;1736;52.068;6.968;2023-06-24T05:47:03;12.37;;;9.50;;
3443;SDS011;1736;52.068;6.968;2023-06-24T05:49:30;11.50;;;9.53;;
3443;SDS011;1736;52.068;6.968;2023-06-24T05:51:56;12.93;;;10.20;;
3443;SDS011;1736;52.068;6.968;2023-06-24T05:54:23;11.07;;;9.33;;
3443;SDS011;1736;52.068;6.968;2023-06-24T05:56:50;12.10;;;10.10;;
3443;SDS011;1736;52.068;6.968;2023-06-24T05:59:16;12.50;;;9.87;;
3443;SDS011;1736;52.068;6.968;2023-06-24T06:01:43;13.40;;;10.27;;
3443;SDS011;1736;52.068;6.968;2023-06-24T06:04:10;11.63;;;9.80;;
3443;SDS011;1736;52.068;6.968;2023-06-24T06:06:37;12.27;;;9.20;;
3443;SDS011;1736;52.068;6.968;2023-06-24T06:09:04;12.27;;;9.90;;
3443;SDS011;1736;52.068;6.968;2023-06-24T06:11:31;11.13;;;9.23;;
3443;SDS011;1736;52.068;6.968;2023-06-24T06:13:57;13.20;;;9.27;;
3443;SDS011;1736;52.068;6.968;2023-06-24T06:16:24;11.07;;;9.43;;
3443;SDS011;1736;52.068;6.968;2023-06-24T06:18:50;12.67;;;9.30;;
3443;SDS011;1736;52.068;6.968;2023-06-24T06:21:18;10.87;;;8.73;;
3443;SDS011;1736;52.068;6.968;2023-06-24T06:23:45;10.50;;;8.70;;
3443;SDS011;1736;52.068;6.968;2023-06-24T06:26:11;10.97;;;8.63;;
3443;SDS011;1736;52.068;6.968;2023-06-24T06:28:38;12.97;;;9.30;;
3443;SDS011;1736;52.068;6.968;2023-06-24T06:31:04;14.43;;;8.80;;
3443;SDS011;1736;52.068;6.968;2023-06-24T06:33:30;15.37;;;9.60;;
3443;SDS011;1736;52.068;6.968;2023-06-24T06:35:57;15.70;;;10.03;;
3443;SDS011;1736;52.068;6.968;2023-06-24T06:38:25;13.30;;;9.90;;
3443;SDS011;1736;52.068;6.968;2023-06-24T06:40:51;13.10;;;9.80;;
3443;SDS011;1736;52.068;6.968;2023-06-24T06:43:18;13.20;;;10.20;;
3443;SDS011;1736;52.068;6.968;2023-06-24T06:45:44;12.93;;;9.83;;
3443;SDS011;1736;52.068;6.968;2023-06-24T06:48:11;16.40;;;10.40;;
3443;SDS011;1736;52.068;6.968;2023-06-24T06:50:37;14.33;;;10.60;;
3443;SDS011;1736;52.068;6.968;2023-06-24T06:53:04;13.40;;;9.83;;
3443;SDS011;1736;52.068;6.968;2023-06-24T06:55:31;15.70;;;10.00;;
3443;SDS011;1736;52.068;6.968;2023-06-24T06:57:58;14.23;;;10.13;;
3443;SDS011;1736;52.068;6.968;2023-06-24T07:00:24;15.43;;;10.63;;
3443;SDS011;1736;52.068;6.968;2023-06-24T07:02:51;16.87;;;11.40;;
3443;SDS011;1736;52.068;6.968;2023-06-24T07:05:17;15.37;;;10.40;;
3443;SDS011;1736;52.068;6.968;2023-06-24T07:07:44;13.93;;;11.30;;
3443;SDS011;1736;52.068;6.968;2023-06-24T07:10:10;15.57;;;11.60;;
3443;SDS011;1736;52.068;6.968;2023-06-24T07:12:38;12.90;;;10.23;;
3443;SDS011;1736;52.068;6.968;2023-06-24T07:15:05;14.93;;;10.87;;
3443;SDS011;1736;52.068;6.968;2023-06-24T07:17:32;14.13;;;11.20;;
3443;SDS011;1736;52.068;6.968;2023-06-24T07:19:59;15.73;;;10.33;;
3443;SDS011;1736;52.068;6.968;2023-06-24T07:22:25;14.63;;;10.97;;
3443;SDS011;1736;52.068;6.968;2023-06-24T07:24:52;14.30;;;9.47;;
3443;SDS011;1736;52.068;6.968;2023-06-24T07:27:18;18.73;;;11.07;;
3443;SDS011;1736;52.068;6.968;2023-06-24T07:29:46;17.47;;;10.90;;
3443;SDS011;1736;52.068;6.968;2023-06-24T07:32:12;13.03;;;9.43;;
3443;SDS011;1736;52.068;6.968;2023-06-24T07:34:39;16.30;;;11.20;;
3443;SDS011;1736;52.068;6.968;2023-06-24T07:37:05;17.60;;;10.13;;
3443;SDS011;1736;52.068;6.968;2023-06-24T07:39:32;14.23;;;9.60;;
3443;SDS011;1736;52.068;6.968;2023-06-24T07:41:58;13.07;;;9.93;;
3443;SDS011;1736;52.068;6.968;2023-06-24T07:44:25;18.50;;;10.10;;
3443;SDS011;1736;52.068;6.968;2023-06-24T07:46:53;15.43;;;10.90;;
3443;SDS011;1736;52.068;6.968;2023-06-24T07:49:19;17.30;;;10.23;;
3443;SDS011;1736;52.068;6.968;2023-06-24T07:51:46;13.97;;;10.27;;
3443;SDS011;1736;52.068;6.968;2023-06-24T07:54:12;14.20;;;10.97;;
3443;SDS011;1736;52.068;6.968;2023-06-24T07:56:39;16.70;;;10.40;;
3443;SDS011;1736;52.068;6.968;2023-06-24T07:59:05;11.77;;;9.20;;
3443;SDS011;1736;52.068;6.968;2023-06-24T08:01:32;13.40;;;10.47;;
3443;SDS011;1736;52.068;6.968;2023-06-24T08:03:59;12.37;;;9.20;;
3443;SDS011;1736;52.068;6.968;2023-06-24T08:06:26;11.20;;;8.83;;
3443;SDS011;1736;52.068;6.968;2023-06-24T08:08:53;11.67;;;9.07;;
3443;SDS011;1736;52.068;6.968;2023-06-24T08:11:19;10.60;;;8.60;;
3443;SDS011;1736;52.068;6.968;2023-06-24T08:13:46;12.70;;;8.23;;
3443;SDS011;1736;52.068;6.968;2023-06-24T08:16:15;11.60;;;8.43;;
3443;SDS011;1736;52.068;6.968;2023-06-24T08:18:43;12.30;;;9.57;;
3443;SDS011;1736;52.068;6.968;2023-06-24T08:21:11;15.10;;;9.83;;
3443;SDS011;1736;52.068;6.968;2023-06-24T08:23:37;16.30;;;11.50;;
3443;SDS011;1736;52.068;6.968;2023-06-24T08:26:04;18.90;;;11.53;;
3443;SDS011;1736;52.068;6.968;2023-06-24T08:28:30;14.30;;;10.90;;
3443;SDS011;1736;52.068;6.968;2023-06-24T08:30:57;18.93;;;11.27;;
3443;SDS011;1736;52.068;6.968;2023-06-24T08:33:23;16.60;;;12.40;;
3443;SDS011;1736;52.068;6.968;2023-06-24T08:35:50;18.13;;;12.53;;
3443;SDS011;1736;52.068;6.968;2023-06-24T08:38:18;18.83;;;12.53;;
3443;SDS011;1736;52.068;6.968;2023-06-24T08:40:44;18.50;;;12.50;;
3443;SDS011;1736;52.068;6.968;2023-06-24T08:43:12;16.07;;;12.33;;
3443;SDS011;1736;52.068;6.968;2023-06-24T08:45:39;15.03;;;13.33;;
3443;SDS011;1736;52.068;6.968;2023-06-24T08:48:05;18.70;;;13.50;;
3443;SDS011;1736;52.068;6.968;2023-06-24T08:50:33;17.60;;;13.33;;
3443;SDS011;1736;52.068;6.968;2023-06-24T08:53:07;18.43;;;14.33;;
3443;SDS011;1736;52.068;6.968;2023-06-24T08:55:36;20.30;;;12.77;;
3443;SDS011;1736;52.068;6.968;2023-06-24T08:58:06;17.87;;;13.30;;
3443;SDS011;1736;52.068;6.968;2023-06-24T09:00:33;16.70;;;13.40;;
3443;SDS011;1736;52.068;6.968;2023-06-24T09:03:00;22.60;;;14.43;;
3443;SDS011;1736;52.068;6.968;2023-06-24T09:05:26;19.90;;;13.87;;
3443;SDS011;1736;52.068;6.968;2023-06-24T09:07:53;18.43;;;13.90;;
3443;SDS011;1736;52.068;6.968;2023-06-24T09:10:28;18.33;;;12.97;;
3443;SDS011;1736;52.068;6.968;2023-06-24T09:12:58;14.67;;;11.10;;
3443;SDS011;1736;52.068;6.968;2023-06-24T09:15:24;19.20;;;12.40;;
3443;SDS011;1736;52.068;6.968;2023-06-24T09:17:51;20.07;;;13.13;;
3443;SDS011;1736;52.068;6.968;2023-06-24T09:20:19;27.23;;;14.53;;
3443;SDS011;1736;52.068;6.968;2023-06-24T09:22:47;20.17;;;13.20;;
3443;SDS011;1736;52.068;6.968;2023-06-24T09:25:16;14.10;;;10.20;;
3443;SDS011;1736;52.068;6.968;2023-06-24T09:27:46;10.67;;;7.53;;
3443;SDS011;1736;52.068;6.968;2023-06-24T09:30:19;7.80;;;6.47;;
3443;SDS011;1736;52.068;6.968;2023-06-24T09:32:47;10.73;;;8.17;;
3443;SDS011;1736;52.068;6.968;2023-06-24T09:35:14;10.37;;;8.20;;
3443;SDS011;1736;52.068;6.968;2023-06-24T09:37:42;10.87;;;8.57;;
3443;SDS011;1736;52.068;6.968;2023-06-24T09:40:09;10.03;;;7.23;;
3443;SDS011;1736;52.068;6.968;2023-06-24T09:42:36;7.23;;;6.00;;
3443;SDS011;1736;52.068;6.968;2023-06-24T09:45:06;7.97;;;6.27;;
3443;SDS011;1736;52.068;6.968;2023-06-24T09:47:34;9.10;;;5.80;;
3443;SDS011;1736;52.068;6.968;2023-06-24T09:50:04;10.20;;;7.30;;
3443;SDS011;1736;52.068;6.968;2023-06-24T09:52:30;8.30;;;6.47;;
3443;SDS011;1736;52.068;6.968;2023-06-24T09:54:59;12.47;;;7.80;;
3443;SDS011;1736;52.068;6.968;2023-06-24T09:57:28;10.83;;;8.10;;
3443;SDS011;1736;52.068;6.968;2023-06-24T09:59:57;10.70;;;8.73;;
3443;SDS011;1736;52.068;6.968;2023-06-24T10:02:24;14.17;;;8.77;;
3443;SDS011;1736;52.068;6.968;2023-06-24T10:04:52;11.10;;;8.00;;
3443;SDS011;1736;52.068;6.968;2023-06-24T10:07:20;9.27;;;7.50;;
3443;SDS011;1736;52.068;6.968;2023-06-24T10:09:47;9.80;;;6.80;;
3443;SDS011;1736;52.068;6.968;2023-06-24T10:12:14;8.30;;;5.80;;
3443;SDS011;1736;52.068;6.968;2023-06-24T10:14:40;9.67;;;6.57;;
3443;SDS011;1736;52.068;6.968;2023-06-24T10:17:07;8.23;;;7.00;;
3443;SDS011;1736;52.068;6.968;2023-06-24T10:19:37;13.30;;;7.40;;
3443;SDS011;1736;52.068;6.968;2023-06-24T10:22:08;9.93;;;7.90;;
3443;SDS011;1736;52.068;6.968;2023-06-24T10:24:36;13.30;;;8.40;;
3443;SDS011;1736;52.068;6.968;2023-06-24T10:27:05;8.60;;;6.93;;
3443;SDS011;1736;52.068;6.968;2023-06-24T10:29:34;8.63;;;6.17;;
3443;SDS011;1736;52.068;6.968;2023-06-24T10:32:04;9.17;;;6.80;;
3443;SDS011;1736;52.068;6.968;2023-06-24T10:34:33;6.87;;;6.00;;
3443;SDS011;1736;52.068;6.968;2023-06-24T10:37:04;9.80;;;6.50;;
3443;SDS011;1736;52.068;6.968;2023-06-24T10:39:37;8.10;;;5.63;;
3443;SDS011;1736;52.068;6.968;2023-06-24T10:44:51;8.77;;;5.90;;
3443;SDS011;1736;52.068;6.968;2023-06-24T10:47:18;9.90;;;5.50;;
3443;SDS011;1736;52.068;6.968;2023-06-24T10:49:46;8.10;;;6.40;;
3443;SDS011;1736;52.068;6.968;2023-06-24T10:52:13;9.17;;;6.73;;
3443;SDS011;1736;52.068;6.968;2023-06-24T10:54:41;7.97;;;6.50;;
3443;SDS011;1736;52.068;6.968;2023-06-24T10:57:07;8.30;;;6.00;;
3443;SDS011;1736;52.068;6.968;2023-06-24T10:59:39;8.07;;;5.63;;
3443;SDS011;1736;52.068;6.968;2023-06-24T11:02:07;10.00;;;6.17;;
3443;SDS011;1736;52.068;6.968;2023-06-24T11:04:40;7.90;;;6.70;;
3443;SDS011;1736;52.068;6.968;2023-06-24T11:07:08;9.07;;;6.57;;
3443;SDS011;1736;52.068;6.968;2023-06-24T11:09:37;5.23;;;4.73;;
3443;SDS011;1736;52.068;6.968;2023-06-24T11:12:03;5.70;;;4.80;;
3443;SDS011;1736;52.068;6.968;2023-06-24T11:14:32;5.43;;;4.33;;
3443;SDS011;1736;52.068;6.968;2023-06-24T11:17:00;9.60;;;4.33;;
3443;SDS011;1736;52.068;6.968;2023-06-24T11:19:27;3.90;;;3.53;;
3443;SDS011;1736;52.068;6.968;2023-06-24T11:21:54;5.83;;;3.80;;
3443;SDS011;1736;52.068;6.968;2023-06-24T11:24:25;4.00;;;3.53;;
3443;SDS011;1736;52.068;6.968;2023-06-24T11:26:52;4.10;;;3.70;;
3443;SDS011;1736;52.068;6.968;2023-06-24T11:29:19;4.60;;;3.83;;
3443;SDS011;1736;52.068;6.968;2023-06-24T11:31:46;3.73;;;3.40;;
3443;SDS011;1736;52.068;6.968;2023-06-24T11:34:12;4.73;;;4.00;;
3443;SDS011;1736;52.068;6.968;2023-06-24T11:36:39;4.60;;;4.10;;
3443;SDS011;1736;52.068;6.968;2023-06-24T11:39:05;5.13;;;3.50;;
3443;SDS011;1736;52.068;6.968;2023-06-24T11:41:32;6.40;;;4.10;;
3443;SDS011;1736;52.068;6.968;2023-06-24T11:44:05;5.97;;;4.50;;
3443;SDS011;1736;52.068;6.968;2023-06-24T11:46:32;6.57;;;4.60;;
3443;SDS011;1736;52.068;6.968;2023-06-24T11:49:03;5.90;;;4.13;;
3443;SDS011;1736;52.068;6.968;2023-06-24T11:51:30;4.57;;;4.17;;
3443;SDS011;1736;52.068;6.968;2023-06-24T11:53:58;4.33;;;3.83;;
3443;SDS011;1736;52.068;6.968;2023-06-24T11:56:33;5.47;;;3.80;;
3443;SDS011;1736;52.068;6.968;2023-06-24T11:59:01;6.70;;;4.30;;
3443;SDS011;1736;52.068;6.968;2023-06-24T12:01:31;3.60;;;3.20;;
3443;SDS011;1736;52.068;6.968;2023-06-24T12:03:59;3.60;;;3.30;;
3443;SDS011;1736;52.068;6.968;2023-06-24T12:06:26;4.57;;;3.77;;
3443;SDS011;1736;52.068;6.968;2023-06-24T12:08:52;3.83;;;3.27;;
3443;SDS011;1736;52.068;6.968;2023-06-24T12:11:19;3.47;;;3.17;;
3443;SDS011;1736;52.068;6.968;2023-06-24T12:13:46;3.37;;;3.07;;
3443;SDS011;1736;52.068;6.968;2023-06-24T12:16:12;4.67;;;3.47;;
3443;SDS011;1736;52.068;6.968;2023-06-24T12:18:40;8.00;;;4.43;;
3443;SDS011;1736;52.068;6.968;2023-06-24T12:21:06;7.73;;;3.73;;
3443;SDS011;1736;52.068;6.968;2023-06-24T12:23:33;2.83;;;2.63;;
3443;SDS011;1736;52.068;6.968;2023-06-24T12:25:59;4.53;;;3.17;;
3443;SDS011;1736;52.068;6.968;2023-06-24T12:28:26;4.30;;;3.80;;
3443;SDS011;1736;52.068;6.968;2023-06-24T12:30:52;4.70;;;3.53;;
3443;SDS011;1736;52.068;6.968;2023-06-24T12:33:19;3.30;;;3.00;;
3443;SDS011;1736;52.068;6.968;2023-06-24T12:35:49;7.90;;;3.20;;
3443;SDS011;1736;52.068;6.968;2023-06-24T12:38:15;3.27;;;3.00;;
3443;SDS011;1736;52.068;6.968;2023-06-24T12:40:42;4.33;;;3.27;;
3443;SDS011;1736;52.068;6.968;2023-06-24T12:43:10;3.43;;;3.03;;
3443;SDS011;1736;52.068;6.968;2023-06-24T12:45:36;4.33;;;3.20;;
3443;SDS011;1736;52.068;6.968;2023-06-24T12:48:03;6.90;;;3.63;;
3443;SDS011;1736;52.068;6.968;2023-06-24T12:50:30;3.37;;;3.03;;
3443;SDS011;1736;52.068;6.968;2023-06-24T12:52:59;3.23;;;2.93;;
3443;SDS011;1736;52.068;6.968;2023-06-24T12:55:25;3.40;;;2.93;;
3443;SDS011;1736;52.068;6.968;2023-06-24T12:57:51;4.00;;;3.50;;
3443;SDS011;1736;52.068;6.968;2023-06-24T13:00:19;5.13;;;3.70;;
3443;SDS011;1736;52.068;6.968;2023-06-24T13:02:46;4.43;;;4.00;;
3443;SDS011;1736;52.068;6.968;2023-06-24T13:05:13;4.33;;;3.30;;
3443;SDS011;1736;52.068;6.968;2023-06-24T13:07:40;4.00;;;3.53;;
3443;SDS011;1736;52.068;6.968;2023-06-24T13:10:09;5.70;;;4.03;;
3443;SDS011;1736;52.068;6.968;2023-06-24T13:12:36;4.73;;;4.20;;
3443;SDS011;1736;52.068;6.968;2023-06-24T13:15:03;6.53;;;4.40;;
3443;SDS011;1736;52.068;6.968;2023-06-24T13:17:34;6.53;;;4.33;;
3443;SDS011;1736;52.068;6.968;2023-06-24T13:20:01;5.03;;;4.53;;
3443;SDS011;1736;52.068;6.968;2023-06-24T13:22:29;6.33;;;4.57;;
3443;SDS011;1736;52.068;6.968;2023-06-24T13:24:55;7.43;;;4.37;;
3443;SDS011;1736;52.068;6.968;2023-06-24T13:27:23;5.63;;;4.90;;
3443;SDS011;1736;52.068;6.968;2023-06-24T13:29:50;5.17;;;4.50;;
3443;SDS011;1736;52.068;6.968;2023-06-24T13:32:16;5.00;;;4.50;;
3443;SDS011;1736;52.068;6.968;2023-06-24T13:34:43;6.17;;;4.60;;
3443;SDS011;1736;52.068;6.968;2023-06-24T13:37:09;6.37;;;4.57;;
3443;SDS011;1736;52.068;6.968;2023-06-24T13:39:36;6.07;;;4.90;;
3443;SDS011;1736;52.068;6.968;2023-06-24T13:42:02;6.50;;;4.50;;
3443;SDS011;1736;52.068;6.968;2023-06-24T13:44:31;4.20;;;3.80;;
3443;SDS011;1736;52.068;6.968;2023-06-24T13:46:57;5.60;;;4.40;;
3443;SDS011;1736;52.068;6.968;2023-06-24T13:49:23;5.90;;;3.70;;
3443;SDS011;1736;52.068;6.968;2023-06-24T13:51:50;4.80;;;4.00;;
3443;SDS011;1736;52.068;6.968;2023-06-24T13:54:17;4.93;;;4.10;;
3443;SDS011;1736;52.068;6.968;2023-06-24T13:56:43;6.67;;;4.40;;
3443;SDS011;1736;52.068;6.968;2023-06-24T13:59:10;4.53;;;3.43;;
3443;SDS011;1736;52.068;6.968;2023-06-24T14:01:38;4.93;;;3.67;;
3443;SDS011;1736;52.068;6.968;2023-06-24T14:04:05;4.20;;;3.80;;
3443;SDS011;1736;52.068;6.968;2023-06-24T14:06:31;5.27;;;3.50;;
3443;SDS011;1736;52.068;6.968;2023-06-24T14:08:58;4.70;;;3.67;;
3443;SDS011;1736;52.068;6.968;2023-06-24T14:11:24;5.00;;;3.20;;
3443;SDS011;1736;52.068;6.968;2023-06-24T14:13:51;3.83;;;3.53;;
3443;SDS011;1736;52.068;6.968;2023-06-24T14:16:17;4.17;;;3.77;;
3443;SDS011;1736;52.068;6.968;2023-06-24T14:18:45;3.87;;;3.50;;
3443;SDS011;1736;52.068;6.968;2023-06-24T14:21:12;6.33;;;4.67;;
3443;SDS011;1736;52.068;6.968;2023-06-24T14:23:38;4.07;;;3.57;;
3443;SDS011;1736;52.068;6.968;2023-06-24T14:26:06;3.73;;;3.43;;
3443;SDS011;1736;52.068;6.968;2023-06-24T14:28:32;3.90;;;3.27;;
3443;SDS011;1736;52.068;6.968;2023-06-24T14:30:59;4.00;;;3.50;;
3443;SDS011;1736;52.068;6.968;2023-06-24T14:33:25;3.20;;;2.90;;
3443;SDS011;1736;52.068;6.968;2023-06-24T14:35:53;4.33;;;3.10;;
3443;SDS011;1736;52.068;6.968;2023-06-24T14:38:20;3.60;;;3.30;;
3443;SDS011;1736;52.068;6.968;2023-06-24T14:40:46;4.93;;;3.33;;
3443;SDS011;1736;52.068;6.968;2023-06-24T14:43:13;5.30;;;3.43;;
3443;SDS011;1736;52.068;6.968;2023-06-24T14:45:40;5.53;;;3.40;;
3443;SDS011;1736;52.068;6.968;2023-06-24T14:48:07;3.43;;;3.10;;
3443;SDS011;1736;52.068;6.968;2023-06-24T14:50:33;4.90;;;3.17;;
3443;SDS011;1736;52.068;6.968;2023-06-24T14:53:01;3.97;;;3.30;;
3443;SDS011;1736;52.068;6.968;2023-06-24T14:55:28;4.07;;;3.20;;
3443;SDS011;1736;52.068;6.968;2023-06-24T14:57:54;4.30;;;3.33;;
3443;SDS011;1736;52.068;6.968;2023-06-24T15:00:21;3.27;;;2.97;;
3443;SDS011;1736;52.068;6.968;2023-06-24T15:02:48;4.70;;;3.60;;
3443;SDS011;1736;52.068;6.968;2023-06-24T15:05:14;5.03;;;3.57;;
3443;SDS011;1736;52.068;6.968;2023-06-24T15:07:41;4.10;;;3.57;;
3443;SDS011;1736;52.068;6.968;2023-06-24T15:10:09;4.10;;;3.70;;